Time;durP1;ratioP1;P1;durP2;ratioP2;P2;SDS_P1;SDS_P2;PMS_P1;PMS_P2;Temp;Humidity;BMP_temperature;BMP_pressure;BME280_temperature;BME280_humidity;BME280_pressure;Samples;Min_cycle;Max_cycle;Signal;HPM_P1;HPM_P2
2022/12/14 00:01:09;;;;;;;51.73;31.10;;;;;;;0.37;100.00;92446.84;5109239;28;20245;-74
2022/12/14 00:03:35;;;;;;;49.70;31.30;;;;;;;0.48;100.00;92453.81;5109544;28;20180;-73
2022/12/14 00:06:12;;;;;;;51.47;32.00;;;;;;;0.47;100.00;92451.47;5091005;28;20298;-73
2022/12/14 00:08:37;;;;;;;51.70;30.23;;;;;;;0.41;100.00;92457.44;5088733;28;20180;-73
2022/12/14 00:11:03;;;;;;;46.00;31.17;;;;;;;0.28;100.00;92447.41;5108884;28;20942;-73
2022/12/14 00:13:28;;;;;;;56.33;32.00;;;;;;;0.28;100.00;92440.47;5109599;28;20249;-73
2022/12/14 00:15:53;;;;;;;49.37;31.27;;;;;;;0.32;100.00;92445.94;5108752;28;20228;-73
2022/12/14 00:18:19;;;;;;;57.67;31.63;;;;;;;0.23;100.00;92448.06;5106857;28;20195;-73
2022/12/14 00:20:44;;;;;;;34.13;25.07;;;;;;;0.22;100.00;92449.03;5092622;28;20223;-73
2022/12/14 00:23:09;;;;;;;32.07;22.40;;;;;;;0.28;100.00;92463.56;5112896;28;20191;-73
2022/12/14 00:25:35;;;;;;;32.73;21.03;;;;;;;0.25;99.39;92453.75;5112652;28;20196;-72
2022/12/14 00:28:00;;;;;;;30.87;21.87;;;;;;;0.39;100.00;92455.09;5112754;28;20228;-73
2022/12/14 00:30:26;;;;;;;32.17;21.83;;;;;;;0.21;100.00;92457.75;5112768;28;20206;-73
2022/12/14 00:32:51;;;;;;;32.43;22.53;;;;;;;0.21;100.00;92457.75;5082584;28;20173;-73
2022/12/14 00:35:17;;;;;;;28.00;21.77;;;;;;;0.08;100.00;92437.41;5095131;28;20241;-72
2022/12/14 00:37:43;;;;;;;33.60;22.57;;;;;;;0.23;100.00;92445.50;5094633;28;20204;-73
2022/12/14 00:40:09;;;;;;;31.43;22.13;;;;;;;0.19;100.00;92444.34;5113043;28;20208;-73
2022/12/14 00:42:35;;;;;;;36.27;24.37;;;;;;;0.08;100.00;92442.53;5112259;28;20229;-73
2022/12/14 00:45:02;;;;;;;40.73;23.93;;;;;;;0.18;100.00;92445.38;5112733;28;20215;-73
2022/12/14 00:47:27;;;;;;;30.30;23.10;;;;;;;0.29;100.00;92454.88;5111020;28;20227;-73
2022/12/14 00:49:53;;;;;;;31.40;22.50;;;;;;;0.14;100.00;92449.34;5113145;28;20180;-73
2022/12/14 00:52:18;;;;;;;30.97;22.53;;;;;;;0.10;100.00;92455.94;5110592;28;20234;-73
2022/12/14 00:54:44;;;;;;;33.30;22.43;;;;;;;0.01;100.00;92449.56;5112384;28;20223;-73
2022/12/14 00:57:09;;;;;;;29.30;20.93;;;;;;;0.23;100.00;92454.97;5094103;28;20208;-73
2022/12/14 00:59:34;;;;;;;33.87;22.73;;;;;;;0.28;100.00;92453.28;5094905;28;20214;-74
2022/12/14 01:02:00;;;;;;;29.87;21.77;;;;;;;-0.01;100.00;92454.13;5093783;28;20243;-73
2022/12/14 01:04:28;;;;;;;35.43;21.23;;;;;;;0.12;100.00;92458.28;5112265;28;20818;-73
2022/12/14 01:06:53;;;;;;;31.27;22.80;;;;;;;0.11;100.00;92439.53;5111428;28;20208;-73
2022/12/14 01:09:20;;;;;;;28.03;21.50;;;;;;;0.10;100.00;92440.53;5112631;28;20196;-72
2022/12/14 01:11:46;;;;;;;29.67;22.13;;;;;;;0.22;100.00;92449.03;5110767;28;20220;-73
2022/12/14 01:14:14;;;;;;;25.67;20.20;;;;;;;0.17;100.00;92446.38;5111323;28;20195;-73
2022/12/14 01:16:39;;;;;;;27.73;21.77;;;;;;;0.28;100.00;92453.28;5111083;28;20227;-72
2022/12/14 01:19:05;;;;;;;33.07;23.53;;;;;;;0.17;100.00;92446.38;5111866;28;20248;-74
2022/12/14 01:21:32;;;;;;;35.37;23.33;;;;;;;0.20;100.00;92461.34;5111417;28;20253;-73
2022/12/14 01:23:59;;;;;;;34.93;21.90;;;;;;;0.13;100.00;92447.00;5112019;28;20202;-73
2022/12/14 01:26:26;;;;;;;36.80;22.97;;;;;;;0.26;100.00;92436.56;5111447;28;20226;-73
2022/12/14 01:28:57;;;;;;;33.07;24.00;;;;;;;0.26;100.00;92446.81;5111744;28;20232;-73
2022/12/14 01:31:28;;;;;;;35.03;24.07;;;;;;;0.13;100.00;92441.88;5109809;28;20220;-72
2022/12/14 01:33:54;;;;;;;30.40;21.70;;;;;;;0.22;100.00;92433.66;5092416;28;20189;-73
2022/12/14 01:36:25;;;;;;;38.93;23.63;;;;;;;0.29;100.00;92442.03;5111109;28;20223;-73
2022/12/14 01:38:56;;;;;;;33.20;23.20;;;;;;;0.30;100.00;92429.97;5111723;28;20180;-74
2022/12/14 01:41:26;;;;;;;26.73;20.30;;;;;;;0.34;100.00;92420.84;5104431;28;20224;-73
2022/12/14 01:43:54;;;;;;;27.33;21.47;;;;;;;0.25;100.00;92406.78;5092990;28;20206;-73
2022/12/14 01:46:22;;;;;;;26.93;21.87;;;;;;;0.40;100.00;92407.91;5111067;28;20227;-73
2022/12/14 01:48:51;;;;;;;27.63;21.00;;;;;;;0.14;100.00;92405.72;5111857;28;20199;-73
2022/12/14 01:51:17;;;;;;;25.83;18.87;;;;;;;0.23;100.00;92413.91;5093881;28;20232;-73
2022/12/14 01:53:42;;;;;;;28.57;20.40;;;;;;;0.23;100.00;92413.91;5093464;28;20243;-73
2022/12/14 01:56:08;;;;;;;28.20;20.90;;;;;;;0.37;100.00;92410.91;5111083;28;20291;-73
2022/12/14 01:58:33;;;;;;;23.93;19.57;;;;;;;0.38;100.00;92391.16;5109826;28;20192;-74
2022/12/14 02:01:00;;;;;;;25.17;20.23;;;;;;;0.50;100.00;92420.19;5110921;28;20227;-73
2022/12/14 02:03:35;;;;;;;26.60;18.90;;;;;;;0.51;100.00;92409.69;5111122;28;20195;-73
2022/12/14 02:06:13;;;;;;;22.73;19.00;;;;;;;0.30;100.00;92407.66;5110639;28;20234;-73
2022/12/14 02:08:40;;;;;;;25.20;19.50;;;;;;;0.25;100.00;92401.63;5111148;28;20195;-73
2022/12/14 02:11:06;;;;;;;20.87;18.50;;;;;;;0.33;100.00;92403.88;5110180;28;20250;-73
2022/12/14 02:13:35;;;;;;;23.13;17.03;;;;;;;0.24;100.00;92405.19;5111066;28;20196;-73
2022/12/14 02:16:00;;;;;;;21.07;17.27;;;;;;;0.38;100.00;92403.97;5097682;28;20235;-73
2022/12/14 02:18:29;;;;;;;18.80;16.97;;;;;;;0.24;100.00;92408.56;5111214;28;20247;-74
2022/12/14 02:21:13;;;;;;;19.47;17.30;;;;;;;0.19;100.00;92399.97;5092826;28;21091;-73
2022/12/14 02:24:15;;;;;;;20.17;18.00;;;;;;;0.29;100.00;92395.84;5110841;28;20183;-73
2022/12/14 02:27:11;;;;;;;20.90;17.93;;;;;;;0.09;100.00;92392.81;5105805;28;20242;-72
2022/12/14 02:30:01;;;;;;;19.97;17.37;;;;;;;0.03;100.00;92386.75;5103956;28;20228;-72
2022/12/14 02:32:56;;;;;;;18.37;16.60;;;;;;;-0.20;100.00;92385.91;5099476;28;20220;-72
2022/12/14 02:35:39;;;;;;;18.10;16.20;;;;;;;-0.20;100.00;92388.47;5096470;28;20246;-72
2022/12/14 02:38:14;;;;;;;19.07;17.07;;;;;;;-0.18;100.00;92384.72;5110517;28;20191;-74
2022/12/14 02:41:10;;;;;;;19.43;17.53;;;;;;;-0.05;100.00;92379.38;5109788;28;20231;-71
2022/12/14 02:44:12;;;;;;;18.87;16.87;;;;;;;-0.10;100.00;92378.47;5109494;28;20213;-73
2022/12/14 02:46:42;;;;;;;16.80;15.03;;;;;;;-0.07;100.00;92385.72;5108737;28;20227;-73
2022/12/14 02:49:51;;;;;;;18.57;16.33;;;;;;;-0.28;100.00;92376.00;5109639;28;20207;-73
2022/12/14 02:52:46;;;;;;;18.27;16.33;;;;;;;-0.13;100.00;92373.78;5064091;28;20223;-72
2022/12/14 02:55:28;;;;;;;19.93;16.63;;;;;;;-0.21;100.00;92371.53;5107801;28;20224;-74
2022/12/14 02:57:56;;;;;;;21.10;17.43;;;;;;;0.01;100.00;92375.16;5109656;28;20199;-73
2022/12/14 03:00:23;;;;;;;19.80;17.83;;;;;;;-0.14;100.00;92378.13;5109845;28;20191;-71
2022/12/14 03:02:50;;;;;;;19.40;17.53;;;;;;;-0.18;100.00;92366.75;5110075;28;20183;-72
2022/12/14 03:05:15;;;;;;;18.23;16.43;;;;;;;-0.02;100.00;92373.03;5110296;28;20643;-73
2022/12/14 03:07:46;;;;;;;17.67;15.90;;;;;;;-0.25;100.00;92371.19;5109337;28;20208;-73
2022/12/14 03:10:36;;;;;;;17.63;15.97;;;;;;;-0.12;100.00;92375.34;5110429;28;20192;-74
2022/12/14 03:13:12;;;;;;;19.77;17.73;;;;;;;-0.12;100.00;92375.34;5102879;28;20219;-73
2022/12/14 03:15:40;;;;;;;18.40;16.50;;;;;;;-0.15;100.00;92379.16;5108905;28;20231;-72
2022/12/14 03:18:08;;;;;;;18.73;16.90;;;;;;;-0.06;100.00;92366.75;5110019;28;20251;-72
2022/12/14 03:20:37;;;;;;;19.53;17.57;;;;;;;-0.40;100.00;92352.09;5091176;28;20176;-73
2022/12/14 03:23:21;;;;;;;19.90;17.93;;;;;;;-0.53;100.00;92331.78;5110164;28;20180;-73
2022/12/14 03:25:57;;;;;;;19.27;16.60;;;;;;;-0.73;100.00;92313.31;5109134;28;20226;-72
2022/12/14 03:28:29;;;;;;;18.53;16.63;;;;;;;-0.43;100.00;92362.78;5108625;28;20278;-73
2022/12/14 03:31:09;;;;;;;18.17;16.27;;;;;;;-0.38;100.00;92353.44;5098384;28;20232;-74
2022/12/14 03:33:37;;;;;;;20.07;16.37;;;;;;;-0.31;100.00;92358.47;5087121;28;20822;-73
2022/12/14 03:36:10;;;;;;;18.50;16.67;;;;;;;-0.66;100.00;92324.25;5100306;28;20261;-73
2022/12/14 03:38:45;;;;;;;16.70;15.30;;;;;;;-0.25;100.00;92360.94;5109016;28;20184;-73
2022/12/14 03:41:13;;;;;;;18.43;16.67;;;;;;;-0.23;100.00;92363.28;5109174;28;20215;-72
2022/12/14 03:43:58;;;;;;;18.37;16.47;;;;;;;-0.31;100.00;92361.03;5108973;28;20950;-74
2022/12/14 03:46:46;;;;;;;20.07;18.07;;;;;;;-0.68;100.00;92367.25;5109168;28;20246;-72
2022/12/14 03:49:22;;;;;;;17.37;15.73;;;;;;;-0.18;100.00;92364.19;5109601;28;20186;-73
2022/12/14 03:52:01;;;;;;;16.77;15.23;;;;;;;-0.24;100.00;92374.53;5109250;28;20250;-73
2022/12/14 03:54:44;;;;;;;15.80;14.50;;;;;;;-0.25;100.00;92360.16;5109437;28;20156;-73
2022/12/14 03:57:27;;;;;;;16.70;15.10;;;;;;;-0.19;100.00;92369.53;5112410;28;20217;-73
2022/12/14 04:00:03;;;;;;;17.90;16.30;;;;;;;-0.11;100.00;92361.53;5111760;28;20560;-71
2022/12/14 04:02:51;;;;;;;17.63;15.83;;;;;;;-0.01;100.00;92364.31;5112944;28;20279;-73
2022/12/14 04:05:36;;;;;;;18.20;16.33;;;;;;;-0.18;100.00;92361.63;5112171;28;20194;-71
2022/12/14 04:08:38;;;;;;;17.70;15.83;;;;;;;0.07;100.00;92363.22;5095555;28;20269;-73
2022/12/14 04:20:01;;;;;;;15.40;13.93;;;;;;;0.07;100.00;92353.75;5113685;28;20210;-73
2022/12/14 04:22:32;;;;;;;18.37;15.43;;;;;;;0.19;100.00;92376.88;5111462;28;20219;-73
2022/12/14 04:27:48;;;;;;;17.50;15.83;;;;;;;0.20;100.00;92368.94;5112653;28;20250;-73
2022/12/14 04:30:14;;;;;;;16.90;15.17;;;;;;;0.35;100.00;92382.13;5112949;28;20169;-72
2022/12/14 04:32:44;;;;;;;17.13;15.40;;;;;;;0.31;100.00;92381.00;5112460;28;20212;-73
2022/12/14 04:35:22;;;;;;;17.33;15.67;;;;;;;0.34;100.00;92383.13;5112828;28;20959;-72
2022/12/14 04:38:08;;;;;;;18.77;15.17;;;;;;;0.21;100.00;92362.81;5094964;28;20200;-72
2022/12/14 04:40:42;;;;;;;16.93;15.27;;;;;;;0.37;100.00;92385.25;5109392;28;20256;-73
2022/12/14 04:43:13;;;;;;;16.30;14.83;;;;;;;0.28;100.00;92362.69;5111839;28;20184;-74
2022/12/14 04:45:43;;;;;;;16.60;15.23;;;;;;;0.45;100.00;92391.84;5112372;28;20227;-73
2022/12/14 04:48:17;;;;;;;16.20;14.73;;;;;;;0.46;100.00;92389.03;5109785;28;20223;-72
2022/12/14 04:50:52;;;;;;;15.30;14.03;;;;;;;0.29;99.75;92397.63;5110198;28;20243;-70
2022/12/14 04:53:24;;;;;;;15.07;13.87;;;;;;;0.21;100.00;92395.38;5110971;28;20235;-72
2022/12/14 04:56:04;;;;;;;15.20;13.83;;;;;;;0.14;100.00;92395.47;5110213;28;20219;-68
2022/12/14 04:58:30;;;;;;;17.53;16.10;;;;;;;0.26;100.00;92390.38;5110654;28;20180;-71
2022/12/14 05:01:21;;;;;;;17.77;16.37;;;;;;;0.14;100.00;92387.00;5110479;28;20261;-69
2022/12/14 05:04:01;;;;;;;16.33;14.67;;;;;;;0.26;100.00;92377.53;5093529;28;20188;-71
2022/12/14 05:06:42;;;;;;;20.17;17.87;;;;;;;0.39;100.00;92390.91;5088919;28;20296;-70
2022/12/14 05:09:18;;;;;;;17.57;15.97;;;;;;;0.49;100.00;92377.53;5112033;28;20214;-72
2022/12/14 05:11:49;;;;;;;17.63;15.97;;;;;;;0.50;100.00;92379.88;5111910;28;20227;-70
2022/12/14 05:14:21;;;;;;;17.93;16.33;;;;;;;0.42;100.00;92371.75;5109886;28;20200;-72
2022/12/14 05:16:48;;;;;;;16.37;15.03;;;;;;;0.49;100.00;92372.41;5093761;28;20249;-74
2022/12/14 05:19:14;;;;;;;16.00;14.80;;;;;;;0.47;100.00;92370.06;5112081;28;20184;-72
2022/12/14 05:21:48;;;;;;;17.20;15.77;;;;;;;0.29;100.00;92377.88;5111905;28;20285;-75
2022/12/14 05:24:16;;;;;;;15.07;13.97;;;;;;;0.33;100.00;92399.50;5094310;28;20647;-73
2022/12/14 05:26:42;;;;;;;15.27;13.97;;;;;;;0.32;100.00;92403.09;5111183;28;20231;-73
2022/12/14 05:29:08;;;;;;;16.07;14.60;;;;;;;-0.01;100.00;92372.03;5111614;28;20203;-74
2022/12/14 05:31:33;;;;;;;17.43;15.47;;;;;;;0.41;99.75;92424.88;5111109;28;20234;-73
2022/12/14 05:33:58;;;;;;;15.60;14.27;;;;;;;0.30;99.96;92425.63;5111788;28;20184;-73
2022/12/14 05:36:24;;;;;;;14.57;13.43;;;;;;;0.42;100.00;92428.97;5111148;28;20988;-73
2022/12/14 05:38:49;;;;;;;15.20;13.87;;;;;;;0.19;100.00;92431.53;5111229;28;20195;-73
2022/12/14 05:41:15;;;;;;;15.17;13.77;;;;;;;0.05;100.00;92426.81;5091237;28;20279;-73
2022/12/14 05:43:40;;;;;;;14.37;13.47;;;;;;;0.08;100.00;92437.41;5108992;28;20955;-73
2022/12/14 05:46:06;;;;;;;15.73;14.53;;;;;;;0.04;100.00;92420.91;5110454;28;21622;-73
2022/12/14 05:48:33;;;;;;;14.47;13.43;;;;;;;0.02;100.00;92411.88;5111055;28;20183;-73
2022/12/14 05:51:10;;;;;;;15.87;14.47;;;;;;;0.10;100.00;92398.69;5111068;28;20224;-73
2022/12/14 05:53:37;;;;;;;15.17;14.00;;;;;;;0.14;100.00;92404.97;5108172;28;20184;-73
2022/12/14 05:56:04;;;;;;;16.30;15.00;;;;;;;0.08;100.00;92409.19;5110396;28;20215;-73
2022/12/14 05:58:30;;;;;;;15.40;14.07;;;;;;;-0.06;100.00;92398.34;5111604;28;20387;-73
2022/12/14 06:01:09;;;;;;;15.23;13.93;;;;;;;0.17;100.00;92405.31;5104567;28;20222;-72
2022/12/14 06:03:34;;;;;;;15.53;14.33;;;;;;;0.00;100.00;92396.69;5093270;28;20255;-72
2022/12/14 06:06:05;;;;;;;15.27;14.07;;;;;;;0.17;100.00;92412.22;5110207;28;20224;-72
2022/12/14 06:08:32;;;;;;;14.37;13.17;;;;;;;0.12;100.00;92412.88;5111107;28;20178;-73
2022/12/14 06:11:07;;;;;;;13.87;12.67;;;;;;;0.13;100.00;92414.44;5110299;28;20215;-73
2022/12/14 06:13:36;;;;;;;14.93;13.93;;;;;;;0.14;100.00;92421.13;5110922;28;20176;-72
2022/12/14 06:16:16;;;;;;;13.77;12.77;;;;;;;0.06;100.00;92403.50;5110381;28;20216;-73
2022/12/14 06:18:44;;;;;;;14.80;13.70;;;;;;;0.17;100.00;92430.97;5092346;28;20182;-72
2022/12/14 06:21:10;;;;;;;15.07;13.87;;;;;;;0.08;100.00;92421.25;5110593;28;20220;-71
2022/12/14 06:23:35;;;;;;;16.00;14.80;;;;;;;0.02;100.00;92420.31;5110559;28;20223;-73
2022/12/14 06:26:01;;;;;;;16.13;14.73;;;;;;;0.06;100.00;92424.03;5109899;28;20222;-73
2022/12/14 06:28:26;;;;;;;14.13;13.13;;;;;;;0.01;100.00;92434.16;5110245;28;20223;-73
2022/12/14 06:30:51;;;;;;;14.90;13.60;;;;;;;0.05;100.00;92442.22;5110412;28;20292;-73
2022/12/14 06:33:17;;;;;;;14.83;13.53;;;;;;;-0.09;100.00;92421.06;5107907;28;20236;-72
2022/12/14 06:35:43;;;;;;;14.57;13.37;;;;;;;0.05;100.00;92437.84;5109191;28;20251;-72
2022/12/14 06:38:09;;;;;;;14.63;13.33;;;;;;;0.02;100.00;92427.25;5109543;28;20192;-73
2022/12/14 06:40:35;;;;;;;14.80;13.63;;;;;;;-0.11;100.00;92423.09;5109433;28;20195;-72
2022/12/14 06:43:00;;;;;;;15.17;13.97;;;;;;;-0.14;100.00;92405.59;5108883;28;20188;-72
2022/12/14 06:45:27;;;;;;;17.00;15.70;;;;;;;-0.16;100.00;92392.19;5109227;28;20195;-73
2022/12/14 06:47:53;;;;;;;14.67;13.63;;;;;;;-0.04;100.00;92421.22;5108569;28;20213;-73
2022/12/14 06:50:18;;;;;;;16.70;15.40;;;;;;;-0.02;100.00;92421.78;5109170;28;20188;-73
2022/12/14 06:52:43;;;;;;;15.07;13.83;;;;;;;0.02;100.00;92425.47;5109874;28;20247;-73
2022/12/14 06:55:09;;;;;;;15.53;14.23;;;;;;;0.09;100.00;92433.06;5109811;28;20195;-73
2022/12/14 06:57:34;;;;;;;16.13;14.77;;;;;;;0.07;100.00;92425.59;5108712;28;20232;-73
2022/12/14 06:59:59;;;;;;;16.73;15.03;;;;;;;0.17;100.00;92425.84;5109621;28;20173;-74
2022/12/14 07:02:25;;;;;;;16.47;15.10;;;;;;;0.05;100.00;92431.97;5109056;28;20220;-73
2022/12/14 07:04:50;;;;;;;16.33;14.67;;;;;;;-0.14;99.27;92439.69;5109218;28;20211;-71
2022/12/14 07:07:15;;;;;;;15.43;14.27;;;;;;;-0.07;100.00;92465.25;5108597;28;20227;-71
2022/12/14 07:09:41;;;;;;;15.67;14.57;;;;;;;-0.03;99.73;92463.81;5109043;28;20180;-71
2022/12/14 07:12:06;;;;;;;15.37;14.07;;;;;;;0.11;100.00;92485.72;5108229;28;20200;-72
2022/12/14 07:14:31;;;;;;;15.63;14.03;;;;;;;0.22;100.00;92469.56;5108552;28;20184;-73
2022/12/14 07:16:57;;;;;;;17.37;15.90;;;;;;;0.36;98.02;92458.13;5083758;28;20432;-73
2022/12/14 07:19:22;;;;;;;26.83;24.73;;;;;;;0.35;98.18;92455.78;5108684;28;20191;-73
2022/12/14 07:21:47;;;;;;;18.60;17.03;;;;;;;0.20;99.88;92440.00;5105150;28;20220;-72
2022/12/14 07:24:13;;;;;;;17.63;16.07;;;;;;;0.52;98.64;92452.34;5086842;28;20260;-71
2022/12/14 07:26:39;;;;;;;16.13;14.73;;;;;;;0.55;97.42;92448.53;5104244;28;20235;-71
2022/12/14 07:29:05;;;;;;;15.67;14.33;;;;;;;0.64;96.38;92455.69;5107674;28;20228;-71
2022/12/14 07:31:30;;;;;;;16.07;14.87;;;;;;;0.46;95.42;92455.81;5111964;28;20310;-71
2022/12/14 07:33:58;;;;;;;15.77;14.50;;;;;;;0.51;95.00;92452.56;5112700;28;20191;-71
2022/12/14 07:36:25;;;;;;;19.00;17.27;;;;;;;0.21;97.08;92452.63;5112329;28;20224;-70
2022/12/14 07:38:52;;;;;;;18.77;16.77;;;;;;;0.12;98.76;92464.22;5111498;28;20187;-71
2022/12/14 07:41:25;;;;;;;18.73;17.03;;;;;;;-0.09;100.00;92455.22;5107795;28;20223;-71
2022/12/14 07:43:53;;;;;;;18.60;16.90;;;;;;;0.03;100.00;92448.34;5105628;28;20196;-72
2022/12/14 07:46:23;;;;;;;19.57;17.80;;;;;;;0.22;100.00;92461.13;5112133;28;20223;-71
2022/12/14 07:48:52;;;;;;;18.87;16.87;;;;;;;0.38;100.00;92463.81;5111365;28;20184;-71
2022/12/14 07:51:20;;;;;;;19.27;17.50;;;;;;;0.57;100.00;92465.31;5104513;28;20379;-72
2022/12/14 07:53:46;;;;;;;17.33;15.80;;;;;;;0.50;99.40;92459.47;5102950;28;20218;-72
2022/12/14 07:56:20;;;;;;;18.50;16.60;;;;;;;0.46;98.92;92466.06;5111868;28;20224;-72
2022/12/14 07:58:46;;;;;;;19.20;17.30;;;;;;;0.39;99.30;92459.47;5086950;28;20192;-73
2022/12/14 08:01:15;;;;;;;19.53;17.73;;;;;;;0.30;100.00;92459.00;5111486;28;20220;-72
2022/12/14 08:03:44;;;;;;;19.67;17.57;;;;;;;0.35;100.00;92453.19;5110462;28;20202;-71
2022/12/14 08:06:11;;;;;;;21.10;18.83;;;;;;;0.21;100.00;92452.63;5111880;28;20212;-71
2022/12/14 08:08:37;;;;;;;19.20;17.13;;;;;;;0.34;100.00;92467.06;5111613;28;20192;-72
2022/12/14 08:11:04;;;;;;;20.77;16.63;;;;;;;-0.02;100.00;92470.53;5111943;28;20243;-72
2022/12/14 08:13:29;;;;;;;21.63;18.43;;;;;;;0.44;100.00;92482.69;5112017;28;20172;-72
2022/12/14 08:15:55;;;;;;;26.20;21.67;;;;;;;0.57;100.00;92480.72;5111180;28;20241;-72
2022/12/14 08:18:20;;;;;;;19.53;16.70;;;;;;;0.52;100.00;92475.44;5111388;28;20184;-72
2022/12/14 08:20:50;;;;;;;21.03;18.73;;;;;;;0.62;100.00;92475.69;5111104;28;20291;-75
2022/12/14 08:23:16;;;;;;;18.83;17.03;;;;;;;0.85;100.00;92496.28;5112047;28;20184;-72
2022/12/14 08:25:41;;;;;;;18.87;17.07;;;;;;;1.19;98.69;92494.69;5111223;28;20247;-72
2022/12/14 08:28:07;;;;;;;19.50;17.63;;;;;;;1.27;97.35;92505.44;5111904;28;20230;-71
2022/12/14 08:30:35;;;;;;;18.97;17.27;;;;;;;1.48;96.76;92506.59;5111461;28;20274;-71
2022/12/14 08:33:01;;;;;;;19.67;17.60;;;;;;;1.51;96.62;92522.38;5111463;28;20180;-72
2022/12/14 08:35:26;;;;;;;20.37;18.50;;;;;;;1.41;96.47;92504.19;5110822;28;20273;-72
2022/12/14 08:37:51;;;;;;;19.67;17.53;;;;;;;1.28;97.63;92498.47;5091535;28;20188;-72
2022/12/14 08:40:17;;;;;;;21.20;19.03;;;;;;;1.55;98.42;92507.28;5112009;28;20176;-72
2022/12/14 08:42:42;;;;;;;25.47;22.87;;;;;;;1.79;96.86;92503.63;5108679;28;20200;-72
2022/12/14 08:45:08;;;;;;;23.80;21.27;;;;;;;1.65;98.11;92492.03;5111583;28;20271;-72
2022/12/14 08:47:33;;;;;;;21.87;18.83;;;;;;;1.87;97.08;92494.81;5110376;28;20228;-72
2022/12/14 08:49:58;;;;;;;20.57;18.57;;;;;;;1.69;95.80;92472.59;5111310;28;20206;-73
2022/12/14 08:52:24;;;;;;;17.93;16.23;;;;;;;1.70;94.86;92483.66;5111406;28;20235;-72
2022/12/14 08:54:49;;;;;;;17.40;15.53;;;;;;;1.82;93.73;92486.97;5111090;28;20216;-72
2022/12/14 08:57:14;;;;;;;17.60;15.97;;;;;;;1.77;92.58;92484.31;5110667;28;20224;-71
2022/12/14 08:59:40;;;;;;;17.87;16.13;;;;;;;1.65;94.14;92497.97;5091370;28;20196;-73
2022/12/14 09:02:05;;;;;;;18.63;16.73;;;;;;;1.64;94.73;92475.84;5106241;28;20215;-73
2022/12/14 09:04:33;;;;;;;17.27;15.67;;;;;;;1.83;93.72;92484.19;5110934;28;20187;-72
2022/12/14 09:06:58;;;;;;;21.40;18.00;;;;;;;1.68;93.37;92461.50;5110154;28;20223;-73
2022/12/14 09:09:24;;;;;;;17.13;15.63;;;;;;;1.82;93.21;92463.81;5110805;28;20191;-71
2022/12/14 09:11:49;;;;;;;17.80;16.10;;;;;;;1.84;92.71;92490.13;5108885;28;20224;-72
2022/12/14 09:14:15;;;;;;;18.00;16.10;;;;;;;1.67;95.24;92493.41;5111258;28;20184;-72
2022/12/14 09:16:40;;;;;;;18.50;16.60;;;;;;;1.76;92.69;92462.94;5110302;28;20251;-72
2022/12/14 09:19:05;;;;;;;17.63;15.83;;;;;;;1.74;94.17;92469.31;5110750;28;20192;-73
2022/12/14 09:21:31;;;;;;;18.83;16.93;;;;;;;1.70;93.78;92469.00;5110188;28;20219;-72
2022/12/14 09:23:56;;;;;;;16.27;14.67;;;;;;;1.57;96.09;92456.41;5104683;28;21668;-73
2022/12/14 09:26:24;;;;;;;18.00;16.17;;;;;;;1.67;95.61;92468.69;5106970;28;20258;-72
2022/12/14 09:28:52;;;;;;;17.93;16.23;;;;;;;1.81;95.61;92465.59;5105732;28;20227;-72
2022/12/14 09:31:19;;;;;;;17.00;14.43;;;;;;;1.74;95.06;92464.97;5110351;28;20216;-72
2022/12/14 09:33:45;;;;;;;20.13;18.37;;;;;;;1.49;95.34;92447.22;5110334;28;20176;-72
2022/12/14 09:36:13;;;;;;;17.40;15.80;;;;;;;1.63;96.51;92461.41;5110535;28;20235;-72
2022/12/14 09:38:39;;;;;;;19.67;17.67;;;;;;;1.30;96.27;92438.13;5109990;28;20218;-73
2022/12/14 09:41:15;;;;;;;19.03;17.23;;;;;;;1.95;95.80;92445.50;5108278;28;20219;-72
2022/12/14 09:44:00;;;;;;;19.23;16.57;;;;;;;2.21;94.22;92443.16;5110439;28;20187;-70
2022/12/14 09:47:00;;;;;;;16.90;15.10;;;;;;;2.44;92.88;92450.78;5100654;28;20232;-72
2022/12/14 09:49:48;;;;;;;16.90;15.20;;;;;;;2.50;93.50;92459.34;5076622;28;20717;-72
2022/12/14 09:52:33;;;;;;;18.57;16.53;;;;;;;2.62;92.34;92457.47;5100309;28;20220;-72
2022/12/14 09:55:02;;;;;;;15.83;14.30;;;;;;;2.29;91.11;92457.47;5107761;28;20250;-72
2022/12/14 09:57:33;;;;;;;16.17;14.73;;;;;;;2.32;91.59;92457.75;5108553;28;20227;-73
2022/12/14 09:59:59;;;;;;;16.37;14.97;;;;;;;1.83;95.52;92478.25;5109634;28;20203;-72
2022/12/14 10:03:13;;;;;;;17.27;15.67;;;;;;;1.97;95.46;92453.78;5085044;28;20220;-73
2022/12/14 10:05:43;;;;;;;16.60;15.27;;;;;;;1.81;95.24;92444.22;5101105;28;20247;-73
2022/12/14 10:08:24;;;;;;;16.67;15.27;;;;;;;1.71;96.41;92436.34;5110528;28;20184;-73
2022/12/14 10:11:20;;;;;;;16.13;14.70;;;;;;;1.74;96.13;92439.25;5110623;28;20231;-73
2022/12/14 10:14:06;;;;;;;19.47;17.47;;;;;;;1.98;94.36;92429.63;5109996;28;20251;-72
2022/12/14 10:16:54;;;;;;;20.40;18.40;;;;;;;2.09;93.07;92441.66;5085440;28;20227;-71
2022/12/14 10:19:40;;;;;;;19.20;16.00;;;;;;;2.09;93.09;92446.78;5110221;28;20200;-72
2022/12/14 10:22:19;;;;;;;18.63;16.83;;;;;;;2.25;92.99;92439.13;5109171;28;20220;-73
2022/12/14 10:25:12;;;;;;;16.60;15.00;;;;;;;2.43;91.25;92426.00;5110498;28;20203;-72
2022/12/14 10:27:40;;;;;;;16.37;14.70;;;;;;;2.63;90.58;92425.56;5091945;28;20231;-73
2022/12/14 10:30:18;;;;;;;17.17;15.70;;;;;;;3.01;90.23;92452.16;5110517;28;20195;-73
2022/12/14 10:32:48;;;;;;;20.47;16.87;;;;;;;2.97;90.48;92432.25;5101733;28;20191;-72
2022/12/14 10:35:17;;;;;;;18.60;16.70;;;;;;;2.78;88.81;92415.47;5110047;28;20275;-72
2022/12/14 10:38:02;;;;;;;18.50;16.73;;;;;;;2.68;91.21;92418.66;5105516;28;20208;-72
2022/12/14 10:40:33;;;;;;;19.90;17.77;;;;;;;2.55;91.89;92418.22;5109495;28;20231;-72
2022/12/14 10:43:10;;;;;;;17.07;15.57;;;;;;;2.62;91.27;92419.63;5110119;28;20191;-72
2022/12/14 10:45:48;;;;;;;19.53;14.67;;;;;;;2.62;91.09;92411.09;5081770;28;20259;-72
2022/12/14 10:48:36;;;;;;;15.87;14.27;;;;;;;2.41;89.44;92420.31;5108500;28;20247;-71
2022/12/14 10:51:29;;;;;;;16.60;15.10;;;;;;;1.83;94.42;92413.91;5106602;28;20228;-71
2022/12/14 10:54:30;;;;;;;20.93;17.30;;;;;;;1.65;95.02;92399.44;5110175;28;20191;-71
2022/12/14 10:56:56;;;;;;;21.90;18.23;;;;;;;1.95;94.81;92404.34;5097673;28;20219;-71
2022/12/14 10:59:22;;;;;;;19.23;17.20;;;;;;;2.06;93.89;92413.78;5109899;28;20184;-71
2022/12/14 11:02:02;;;;;;;17.47;15.77;;;;;;;2.18;95.64;92404.22;5109376;28;20236;-72
2022/12/14 11:04:38;;;;;;;15.50;14.03;;;;;;;2.43;94.04;92407.22;5108187;28;20211;-71
2022/12/14 11:07:09;;;;;;;14.70;13.43;;;;;;;2.37;91.39;92397.81;5108423;28;20301;-71
2022/12/14 11:09:36;;;;;;;16.07;14.67;;;;;;;2.22;92.81;92397.59;5109926;28;20910;-71
2022/12/14 11:12:20;;;;;;;16.73;15.23;;;;;;;2.30;93.37;92392.84;5109001;28;20271;-69
2022/12/14 11:14:57;;;;;;;16.03;14.47;;;;;;;2.43;92.69;92392.53;5101526;28;20196;-69
2022/12/14 11:17:41;;;;;;;17.00;15.30;;;;;;;2.22;91.72;92395.00;5109242;28;21282;-70
2022/12/14 11:20:24;;;;;;;15.10;13.90;;;;;;;2.19;91.78;92380.03;5105361;28;20184;-70
2022/12/14 11:22:56;;;;;;;15.47;14.17;;;;;;;2.01;93.63;92375.13;5100634;28;20214;-69
2022/12/14 11:25:54;;;;;;;15.40;14.00;;;;;;;1.94;95.38;92377.03;5109032;28;20187;-70
2022/12/14 11:28:32;;;;;;;17.43;15.77;;;;;;;2.35;93.18;92381.84;5083272;28;20247;-70
2022/12/14 11:31:04;;;;;;;16.23;14.63;;;;;;;2.38;92.49;92383.94;5081403;28;20287;-70
2022/12/14 11:33:40;;;;;;;18.80;17.20;;;;;;;2.44;90.88;92390.75;5087834;28;20231;-70
2022/12/14 11:36:21;;;;;;;16.77;15.27;;;;;;;2.31;94.74;92384.09;5088824;28;20228;-71
2022/12/14 11:38:56;;;;;;;18.70;16.80;;;;;;;2.59;93.70;92365.19;5088476;28;20188;-71
2022/12/14 11:41:22;;;;;;;16.13;14.77;;;;;;;2.84;91.91;92357.81;5085371;28;20235;-71
2022/12/14 11:44:03;;;;;;;14.73;13.53;;;;;;;2.90;88.73;92365.38;5089241;28;20255;-70
2022/12/14 11:46:59;;;;;;;15.73;14.23;;;;;;;2.62;89.34;92380.19;5087645;28;20204;-72
2022/12/14 11:49:32;;;;;;;14.90;13.77;;;;;;;2.53;91.34;92368.72;5089006;28;20196;-72
2022/12/14 11:52:01;;;;;;;14.60;13.30;;;;;;;2.13;94.60;92368.09;5087521;28;20938;-71